createdAt,value
2019-03-17T00:02:13.193Z,2.60
2019-03-17T00:04:42.510Z,4.37
2019-03-17T00:07:11.872Z,2.73
2019-03-17T00:09:41.180Z,2.77
2019-03-17T00:12:10.892Z,3.27
2019-03-17T00:14:40.182Z,2.80
2019-03-17T00:17:09.528Z,3.10
2019-03-17T00:19:38.868Z,2.63
2019-03-17T00:22:08.162Z,3.07
2019-03-17T00:24:37.460Z,3.00
2019-03-17T00:27:06.794Z,3.47
2019-03-17T00:29:36.171Z,3.40
2019-03-17T00:32:05.547Z,3.70
2019-03-17T00:34:43.559Z,3.23
2019-03-17T00:37:05.945Z,3.70
2019-03-17T00:39:35.830Z,2.93
2019-03-17T00:42:05.142Z,4.00
2019-03-17T00:44:34.472Z,3.57
2019-03-17T00:47:03.770Z,4.37
2019-03-17T00:49:33.119Z,3.43
2019-03-17T00:52:03.293Z,3.27
2019-03-17T00:54:33.013Z,3.10
2019-03-17T00:57:02.356Z,3.10
2019-03-17T00:59:31.676Z,3.03
2019-03-17T01:02:01.009Z,3.40
2019-03-17T01:04:30.304Z,3.20
2019-03-17T01:06:59.641Z,3.23
2019-03-17T01:09:29.021Z,3.50
2019-03-17T01:11:58.309Z,3.33
2019-03-17T01:14:27.650Z,3.23
2019-03-17T01:16:57.024Z,3.40
2019-03-17T01:19:26.506Z,3.00
2019-03-17T01:21:55.810Z,3.53
2019-03-17T01:24:25.070Z,3.30
2019-03-17T01:26:54.518Z,3.67
2019-03-17T01:29:23.833Z,3.60
2019-03-17T01:31:53.175Z,3.13
2019-03-17T01:34:22.488Z,3.30
2019-03-17T01:36:51.898Z,4.20
2019-03-17T01:39:21.236Z,3.37
2019-03-17T01:41:50.607Z,3.40
2019-03-17T01:44:19.931Z,3.50
2019-03-17T01:46:49.189Z,3.50
2019-03-17T01:49:18.551Z,3.63
2019-03-17T01:51:47.987Z,3.37
2019-03-17T01:54:17.335Z,3.40
2019-03-17T01:56:46.735Z,3.87
2019-03-17T01:59:16.314Z,3.63
2019-03-17T02:01:45.620Z,3.30
2019-03-17T02:04:14.941Z,3.70
2019-03-17T02:06:44.259Z,4.00
2019-03-17T02:09:13.966Z,3.60
2019-03-17T02:11:43.239Z,4.40
2019-03-17T02:14:12.622Z,4.30
2019-03-17T02:16:42.090Z,3.80
2019-03-17T02:19:11.432Z,4.17
2019-03-17T02:21:40.737Z,3.60
2019-03-17T02:24:10.061Z,4.13
2019-03-17T02:26:39.413Z,4.00
2019-03-17T02:29:08.673Z,3.10
2019-03-17T02:31:38.058Z,4.87
2019-03-17T02:34:07.446Z,4.70
2019-03-17T02:36:36.816Z,4.80
2019-03-17T02:39:06.918Z,4.47
2019-03-17T02:41:36.226Z,4.10
2019-03-17T02:44:05.536Z,4.03
2019-03-17T02:46:34.840Z,3.77
2019-03-17T02:49:04.135Z,4.00
2019-03-17T02:51:33.505Z,3.47
2019-03-17T02:54:03.140Z,4.80
2019-03-17T02:56:32.448Z,3.50
2019-03-17T02:59:01.882Z,3.63
2019-03-17T03:01:31.715Z,4.30
2019-03-17T03:04:01.058Z,3.77
2019-03-17T03:06:30.458Z,4.20
2019-03-17T03:08:59.783Z,3.83
2019-03-17T03:11:29.225Z,3.90
2019-03-17T03:13:58.553Z,3.43
2019-03-17T03:16:27.858Z,2.70
2019-03-17T03:18:57.156Z,3.93
2019-03-17T03:21:27.819Z,3.97
2019-03-17T03:23:57.188Z,4.43
2019-03-17T03:26:26.563Z,3.67
2019-03-17T03:28:56.161Z,4.30
2019-03-17T03:31:25.538Z,3.90
2019-03-17T03:33:54.843Z,6.00
2019-03-17T03:36:24.227Z,5.30
2019-03-17T03:38:53.671Z,4.43
2019-03-17T03:41:22.996Z,4.87
2019-03-17T03:43:52.385Z,3.20
2019-03-17T03:46:21.706Z,5.80
2019-03-17T03:48:51.009Z,4.80
2019-03-17T03:51:20.295Z,5.37
2019-03-17T03:53:49.685Z,4.77
2019-03-17T03:56:19.114Z,4.60
2019-03-17T03:58:48.432Z,4.50
2019-03-17T04:01:17.853Z,3.83
2019-03-17T04:03:47.113Z,4.20
2019-03-17T04:06:26.574Z,5.00
2019-03-17T04:08:47.508Z,4.50
2019-03-17T04:11:16.789Z,3.67
2019-03-17T04:13:46.156Z,3.83
2019-03-17T04:16:15.468Z,4.50
2019-03-17T04:18:44.809Z,4.20
2019-03-17T04:21:14.133Z,3.73
2019-03-17T04:23:43.507Z,4.20
2019-03-17T04:26:12.825Z,4.73
2019-03-17T04:28:42.088Z,4.50
2019-03-17T04:31:14.315Z,3.90
2019-03-17T04:33:42.481Z,3.53
2019-03-17T04:36:11.849Z,4.07
2019-03-17T04:38:43.659Z,3.60
2019-03-17T04:41:12.090Z,4.60
2019-03-17T04:43:41.413Z,4.70
2019-03-17T04:46:10.729Z,5.00
2019-03-17T04:48:41.536Z,4.20
2019-03-17T04:51:10.876Z,4.13
2019-03-17T04:53:40.058Z,3.90
2019-03-17T04:56:09.374Z,4.27
2019-03-17T04:58:38.684Z,5.20
2019-03-17T05:01:08.063Z,4.53
2019-03-17T05:03:37.368Z,4.40
2019-03-17T05:06:06.702Z,4.57
2019-03-17T05:08:35.984Z,4.33
2019-03-17T05:11:05.327Z,4.77
2019-03-17T05:13:34.709Z,4.73
2019-03-17T05:16:04.077Z,4.27
2019-03-17T05:18:33.485Z,4.00
2019-03-17T05:21:02.775Z,4.87
2019-03-17T05:23:32.159Z,4.63
2019-03-17T05:26:01.528Z,3.87
2019-03-17T05:28:30.933Z,3.70
2019-03-17T05:31:00.219Z,3.50
2019-03-17T05:33:29.537Z,4.60
2019-03-17T05:35:58.876Z,3.90
2019-03-17T05:38:28.156Z,3.77
2019-03-17T05:40:57.485Z,3.40
2019-03-17T05:43:26.859Z,4.43
2019-03-17T05:45:56.217Z,3.83
2019-03-17T05:48:25.493Z,4.53
2019-03-17T05:50:54.791Z,3.63
2019-03-17T05:53:24.132Z,3.83
2019-03-17T05:55:53.452Z,4.23
2019-03-17T05:58:22.765Z,3.50
2019-03-17T06:00:52.104Z,4.30
2019-03-17T06:03:21.438Z,3.60
2019-03-17T06:05:51.110Z,3.20
2019-03-17T06:08:20.412Z,3.70
2019-03-17T06:10:49.712Z,3.30
2019-03-17T06:13:18.982Z,4.30
2019-03-17T06:15:48.411Z,4.50
2019-03-17T06:18:17.796Z,3.17
2019-03-17T06:20:47.061Z,4.43
2019-03-17T06:23:16.416Z,3.33
2019-03-17T06:25:45.730Z,4.10
2019-03-17T06:28:15.054Z,3.07
2019-03-17T06:30:44.419Z,3.43
2019-03-17T06:33:13.774Z,3.20
2019-03-17T06:35:43.090Z,3.97
2019-03-17T06:38:12.432Z,3.70
2019-03-17T06:40:41.728Z,3.40
2019-03-17T06:43:11.025Z,3.20
2019-03-17T06:45:40.358Z,3.10
2019-03-17T06:48:09.763Z,3.00
2019-03-17T06:50:39.053Z,2.90
2019-03-17T06:53:08.358Z,2.60
2019-03-17T06:55:37.684Z,3.40
2019-03-17T06:58:06.985Z,3.43
2019-03-17T07:00:36.292Z,3.40
2019-03-17T07:03:05.584Z,2.10
2019-03-17T07:05:34.969Z,2.03
2019-03-17T07:08:04.338Z,1.20
2019-03-17T07:10:33.684Z,1.50
2019-03-17T07:13:03.046Z,0.97
2019-03-17T07:15:32.337Z,0.67
2019-03-17T07:18:01.668Z,0.83
2019-03-17T07:20:30.934Z,0.77
2019-03-17T07:23:00.692Z,0.60
2019-03-17T07:25:29.994Z,0.70
2019-03-17T07:27:59.267Z,0.80
2019-03-17T07:30:28.664Z,0.60
2019-03-17T07:32:57.990Z,0.77
2019-03-17T07:35:28.803Z,0.70
2019-03-17T07:37:59.075Z,0.73
2019-03-17T07:40:28.433Z,0.70
2019-03-17T07:42:57.760Z,0.53
2019-03-17T07:45:27.087Z,0.60
2019-03-17T07:47:56.397Z,0.77
2019-03-17T07:50:25.682Z,0.70
2019-03-17T07:52:55.005Z,0.70
2019-03-17T07:55:24.308Z,0.40
2019-03-17T07:57:53.664Z,0.47
2019-03-17T08:00:31.916Z,0.77
2019-03-17T08:02:54.005Z,0.30
2019-03-17T08:05:23.249Z,0.50
2019-03-17T08:07:52.592Z,0.47
2019-03-17T08:10:21.905Z,0.53
2019-03-17T08:12:51.216Z,0.50
2019-03-17T08:15:20.489Z,0.60
2019-03-17T08:17:50.217Z,0.73
2019-03-17T08:20:19.571Z,0.67
2019-03-17T08:22:49.152Z,1.53
2019-03-17T08:25:18.556Z,0.70
2019-03-17T08:27:47.895Z,1.03
2019-03-17T08:30:17.271Z,0.53
2019-03-17T08:32:46.604Z,1.00
2019-03-17T08:35:16.081Z,1.27
2019-03-17T08:37:45.417Z,1.60
2019-03-17T08:40:14.449Z,1.30
2019-03-17T08:42:43.724Z,2.53
2019-03-17T08:45:14.584Z,4.43
2019-03-17T08:47:56.567Z,2.53
2019-03-17T08:50:14.955Z,2.67
2019-03-17T08:52:44.275Z,2.80
2019-03-17T08:55:13.779Z,1.50
2019-03-17T08:57:43.105Z,1.90
2019-03-17T09:00:12.781Z,2.40
2019-03-17T09:02:42.640Z,1.50
2019-03-17T09:05:11.995Z,1.90
2019-03-17T09:07:41.259Z,1.73
2019-03-17T09:10:11.599Z,1.60
2019-03-17T09:12:40.966Z,1.60
2019-03-17T09:15:10.245Z,2.10
2019-03-17T09:17:39.582Z,2.10
2019-03-17T09:20:09.069Z,2.20
2019-03-17T09:22:38.403Z,1.50
2019-03-17T09:25:08.864Z,1.83
2019-03-17T09:27:38.190Z,1.23
2019-03-17T09:30:09.147Z,1.00
2019-03-17T09:32:38.443Z,1.20
2019-03-17T09:35:08.077Z,1.40
2019-03-17T09:37:38.424Z,1.00
2019-03-17T09:40:08.613Z,1.23
2019-03-17T09:42:37.937Z,1.20
2019-03-17T09:45:07.592Z,1.47
2019-03-17T09:47:36.993Z,2.07
2019-03-17T09:50:07.250Z,1.20
2019-03-17T09:52:36.586Z,1.10
2019-03-17T09:55:05.950Z,1.20
2019-03-17T09:57:35.295Z,1.77
2019-03-17T10:00:05.110Z,1.33
2019-03-17T10:02:34.480Z,1.53
2019-03-17T10:05:03.860Z,1.60
2019-03-17T10:07:33.233Z,1.63
2019-03-17T10:10:02.511Z,1.50
2019-03-17T10:12:31.868Z,1.70
2019-03-17T10:15:01.136Z,1.57
2019-03-17T10:17:30.594Z,1.57
2019-03-17T10:19:59.897Z,1.97
2019-03-17T10:22:29.247Z,2.53
2019-03-17T10:24:58.646Z,1.70
2019-03-17T10:27:28.249Z,1.30
2019-03-17T10:29:57.592Z,1.93
2019-03-17T10:32:26.917Z,1.53
2019-03-17T10:34:56.195Z,1.40
2019-03-17T10:37:25.543Z,2.40
2019-03-17T10:39:54.880Z,1.63
2019-03-17T10:42:24.289Z,1.70
2019-03-17T10:44:53.680Z,2.60
2019-03-17T10:47:22.991Z,1.83
2019-03-17T10:49:52.328Z,1.83
2019-03-17T10:52:22.127Z,1.87
2019-03-17T10:54:51.480Z,1.30
2019-03-17T10:57:20.837Z,1.90
2019-03-17T10:59:50.147Z,1.80
2019-03-17T11:02:19.511Z,1.60
2019-03-17T11:04:48.841Z,1.53
2019-03-17T11:07:18.161Z,1.50
2019-03-17T11:09:47.526Z,1.93
2019-03-17T11:12:17.105Z,1.37
2019-03-17T11:14:46.517Z,1.80
2019-03-17T11:17:15.841Z,1.57
2019-03-17T11:19:45.081Z,3.10
2019-03-17T11:22:14.443Z,3.43
2019-03-17T11:24:43.781Z,1.80
2019-03-17T11:27:13.424Z,1.50
2019-03-17T11:29:42.751Z,1.40
2019-03-17T11:32:12.108Z,1.43
2019-03-17T11:34:41.477Z,1.13
2019-03-17T11:37:10.922Z,3.27
2019-03-17T11:39:40.274Z,1.50
2019-03-17T11:42:09.608Z,1.23
2019-03-17T11:44:38.978Z,2.10
2019-03-17T11:47:08.221Z,1.63
2019-03-17T11:49:37.505Z,1.30
2019-03-17T11:52:06.829Z,1.03
2019-03-17T11:54:36.126Z,1.10
2019-03-17T11:57:05.733Z,0.70
2019-03-17T11:59:35.065Z,0.80
2019-03-17T12:02:04.360Z,0.90
2019-03-17T12:04:33.670Z,1.20
2019-03-17T12:07:03.036Z,1.03
2019-03-17T12:09:32.245Z,0.73
2019-03-17T12:12:01.581Z,1.20
2019-03-17T12:14:30.897Z,0.83
2019-03-17T12:17:00.361Z,1.10
2019-03-17T12:19:32.605Z,0.80
2019-03-17T12:22:08.851Z,0.67
2019-03-17T12:24:31.709Z,0.80
2019-03-17T12:27:01.102Z,1.17
2019-03-17T12:29:30.385Z,0.70
2019-03-17T12:31:59.725Z,0.70
2019-03-17T12:34:29.026Z,0.80
2019-03-17T12:36:58.324Z,0.80
2019-03-17T12:39:27.632Z,0.73
2019-03-17T12:41:56.939Z,0.73
2019-03-17T12:44:26.723Z,1.00
2019-03-17T12:46:56.118Z,0.83
2019-03-17T12:49:25.398Z,0.70
2019-03-17T12:51:54.777Z,0.90
2019-03-17T12:54:24.061Z,0.80
2019-03-17T12:56:53.412Z,0.80
2019-03-17T12:59:22.762Z,1.07
2019-03-17T13:01:52.072Z,1.00
2019-03-17T13:04:23.803Z,0.70
2019-03-17T13:06:53.131Z,0.63
2019-03-17T13:09:22.432Z,1.20
2019-03-17T13:11:52.125Z,1.13
2019-03-17T13:14:21.417Z,0.80
2019-03-17T13:16:51.114Z,0.77
2019-03-17T13:19:20.430Z,0.80
2019-03-17T13:21:49.754Z,0.97
2019-03-17T13:24:19.120Z,0.60
2019-03-17T13:26:48.441Z,0.60
2019-03-17T13:29:17.864Z,0.67
2019-03-17T13:31:47.152Z,1.00
2019-03-17T13:34:16.912Z,1.20
2019-03-17T13:36:46.744Z,1.13
2019-03-17T13:39:16.101Z,1.07
2019-03-17T13:41:45.497Z,0.90
2019-03-17T13:44:14.854Z,0.83
2019-03-17T13:46:44.149Z,1.00
2019-03-17T13:49:13.462Z,1.20
2019-03-17T13:51:43.157Z,1.20
2019-03-17T13:54:12.481Z,1.13
2019-03-17T13:56:41.796Z,1.10
2019-03-17T13:59:11.127Z,1.13
2019-03-17T14:01:40.494Z,1.50
2019-03-17T14:04:09.838Z,1.80
2019-03-17T14:06:40.715Z,2.80
2019-03-17T14:09:10.047Z,1.87
2019-03-17T14:11:39.454Z,1.40
2019-03-17T14:14:08.803Z,1.60
2019-03-17T14:16:39.440Z,1.60
2019-03-17T14:19:09.089Z,1.47
2019-03-17T14:21:38.416Z,1.73
2019-03-17T14:24:07.727Z,1.60
2019-03-17T14:26:37.063Z,0.87
2019-03-17T14:29:06.400Z,1.10
2019-03-17T14:31:35.707Z,0.97
2019-03-17T14:34:05.028Z,0.97
2019-03-17T14:36:34.363Z,1.10
2019-03-17T14:39:04.885Z,0.83
2019-03-17T14:41:34.135Z,0.77
2019-03-17T14:44:03.580Z,0.80
2019-03-17T14:46:35.555Z,0.60
2019-03-17T14:49:03.973Z,0.80
2019-03-17T14:51:33.565Z,1.00
2019-03-17T14:54:03.336Z,0.80
2019-03-17T14:56:32.902Z,0.80
2019-03-17T14:59:02.334Z,0.70
2019-03-17T15:01:31.777Z,0.83
2019-03-17T15:04:03.882Z,1.10
2019-03-17T15:06:33.606Z,0.53
2019-03-17T15:09:03.711Z,0.67
2019-03-17T15:11:33.014Z,0.63
2019-03-17T15:14:02.316Z,0.67
2019-03-17T15:16:31.653Z,0.50
2019-03-17T15:19:01.625Z,0.80
2019-03-17T15:21:30.925Z,1.73
2019-03-17T15:24:00.264Z,0.87
2019-03-17T15:26:29.584Z,1.13
2019-03-17T15:28:58.915Z,1.37
2019-03-17T15:31:28.225Z,1.30
2019-03-17T15:33:57.508Z,1.80
2019-03-17T15:36:26.922Z,1.73
2019-03-17T15:38:57.533Z,1.30
2019-03-17T15:41:26.872Z,1.60
2019-03-17T15:43:56.225Z,1.10
2019-03-17T15:46:25.588Z,1.70
2019-03-17T15:48:55.640Z,1.80
2019-03-17T15:51:25.449Z,2.03
2019-03-17T15:53:54.807Z,2.07
2019-03-17T15:56:24.173Z,2.00
2019-03-17T15:58:55.437Z,2.77
2019-03-17T16:01:24.795Z,2.67
2019-03-17T16:04:00.349Z,3.20
2019-03-17T16:06:30.005Z,2.77
2019-03-17T16:09:18.437Z,2.57
2019-03-17T16:11:47.859Z,2.90
2019-03-17T16:14:17.214Z,1.83
2019-03-17T16:16:46.535Z,1.53
2019-03-17T16:19:15.863Z,13.67
2019-03-17T16:21:45.134Z,4.47
2019-03-17T16:24:14.477Z,3.03
2019-03-17T16:26:43.800Z,1.30
2019-03-17T16:29:13.088Z,0.80
2019-03-17T16:31:42.368Z,1.10
2019-03-17T16:34:11.698Z,1.17
2019-03-17T16:36:41.051Z,0.93
2019-03-17T16:39:10.417Z,1.10
2019-03-17T16:41:43.640Z,0.90
2019-03-17T16:44:11.056Z,1.33
2019-03-17T16:46:40.480Z,0.70
2019-03-17T16:49:09.934Z,1.00
2019-03-17T16:51:39.319Z,0.80
2019-03-17T16:54:08.708Z,0.80
2019-03-17T16:56:38.057Z,1.10
2019-03-17T16:59:07.450Z,1.20
2019-03-17T17:01:36.785Z,0.70
2019-03-17T17:04:06.221Z,0.90
2019-03-17T17:06:38.571Z,0.70
2019-03-17T17:09:08.248Z,0.90
2019-03-17T17:11:39.873Z,1.03
2019-03-17T17:14:09.258Z,1.27
2019-03-17T17:16:38.644Z,1.63
2019-03-17T17:19:08.025Z,0.80
2019-03-17T17:21:37.461Z,1.70
2019-03-17T17:24:06.807Z,1.43
2019-03-17T17:26:37.572Z,2.50
2019-03-17T17:29:07.295Z,1.10
2019-03-17T17:31:36.656Z,1.63
2019-03-17T17:34:06.020Z,9.97
2019-03-17T17:36:35.425Z,2.50
2019-03-17T17:39:08.100Z,10.73
2019-03-17T17:41:37.499Z,2.53
2019-03-17T17:44:06.904Z,3.50
2019-03-17T17:46:36.615Z,5.33
2019-03-17T17:49:06.032Z,6.70
2019-03-17T17:51:35.332Z,3.10
2019-03-17T17:54:04.741Z,9.10
2019-03-17T17:56:34.138Z,6.73
2019-03-17T17:59:03.472Z,2.03
2019-03-17T18:01:33.863Z,1.40
2019-03-17T18:04:03.172Z,1.60
2019-03-17T18:06:32.510Z,2.93
2019-03-17T18:09:02.260Z,2.00
2019-03-17T18:11:31.593Z,1.87
2019-03-17T18:14:03.212Z,1.30
2019-03-17T18:20:14.022Z,1.10
2019-03-17T18:22:43.296Z,1.10
2019-03-17T18:25:14.043Z,1.10
2019-03-17T18:27:43.439Z,1.20
2019-03-17T18:30:14.646Z,1.20
2019-03-17T18:32:43.973Z,1.00
2019-03-17T18:35:13.380Z,1.50
2019-03-17T18:37:42.781Z,1.73
2019-03-17T18:40:13.759Z,1.20
2019-03-17T18:42:43.096Z,1.33
2019-03-17T18:45:14.988Z,1.40
2019-03-17T18:47:44.324Z,1.20
2019-03-17T18:50:20.253Z,1.10
2019-03-17T18:52:45.061Z,1.23
2019-03-17T18:55:14.387Z,2.60
2019-03-17T18:57:43.730Z,1.40
2019-03-17T19:00:15.028Z,1.20
2019-03-17T19:02:44.349Z,1.00
2019-03-17T19:05:14.639Z,1.20
2019-03-17T19:07:43.956Z,1.13
2019-03-17T19:10:13.813Z,1.43
2019-03-17T19:12:45.930Z,1.47
2019-03-17T19:15:15.323Z,1.87
2019-03-17T19:17:44.627Z,3.17
2019-03-17T19:20:15.085Z,1.30
2019-03-17T19:22:44.416Z,2.10
2019-03-17T19:25:14.790Z,1.77
2019-03-17T19:27:44.109Z,1.10
2019-03-17T19:30:15.966Z,1.00
2019-03-17T19:32:45.411Z,1.23
2019-03-17T19:35:16.387Z,0.93
2019-03-17T19:37:45.715Z,1.30
2019-03-17T19:40:15.452Z,1.00
2019-03-17T19:42:57.463Z,0.80
2019-03-17T19:45:15.858Z,0.80
2019-03-17T19:47:45.164Z,1.20
2019-03-17T19:50:14.592Z,1.00
2019-03-17T19:52:43.926Z,1.53
2019-03-17T19:55:13.296Z,1.53
2019-03-17T19:57:42.607Z,1.30
2019-03-17T20:00:13.909Z,1.90
2019-03-17T20:02:43.239Z,2.67
2019-03-17T20:05:12.648Z,1.40
2019-03-17T20:07:42.013Z,1.87
2019-03-17T20:10:13.520Z,2.73
2019-03-17T20:12:42.859Z,1.63
2019-03-17T20:15:12.315Z,4.00
2019-03-17T20:17:41.656Z,2.20
2019-03-17T20:20:11.647Z,1.67
2019-03-17T20:22:41.871Z,1.73
2019-03-17T20:25:11.216Z,2.20
2019-03-17T20:27:40.544Z,1.87
2019-03-17T20:30:10.862Z,1.63
2019-03-17T20:32:40.172Z,1.40
2019-03-17T20:35:11.220Z,1.60
2019-03-17T20:37:40.624Z,1.40
2019-03-17T20:40:10.850Z,1.93
2019-03-17T20:42:40.060Z,1.63
2019-03-17T20:45:09.768Z,1.67
2019-03-17T20:47:39.024Z,1.63
2019-03-17T20:50:09.916Z,1.90
2019-03-17T20:52:39.601Z,1.30
2019-03-17T20:55:11.801Z,1.67
2019-03-17T20:57:41.116Z,1.40
2019-03-17T21:00:12.742Z,1.53
2019-03-17T21:02:44.827Z,1.60
2019-03-17T21:05:14.189Z,1.73
2019-03-17T21:07:43.668Z,1.30
2019-03-17T21:10:18.720Z,2.63
2019-03-17T21:12:48.040Z,1.80
2019-03-17T21:15:17.337Z,1.80
2019-03-17T21:17:46.661Z,2.10
2019-03-17T21:20:16.053Z,1.93
2019-03-17T21:22:45.513Z,1.70
2019-03-17T21:25:14.898Z,1.87
2019-03-17T21:27:44.296Z,2.00
2019-03-17T21:30:15.863Z,2.00
2019-03-17T21:32:45.272Z,2.33
2019-03-17T21:35:14.751Z,2.40
2019-03-17T21:37:44.171Z,2.23
2019-03-17T21:40:13.492Z,2.80
2019-03-17T21:42:43.251Z,1.60
2019-03-17T21:45:12.685Z,2.53
2019-03-17T21:47:43.541Z,2.30
2019-03-17T21:50:14.509Z,2.30
2019-03-17T21:52:43.815Z,2.17
2019-03-17T21:55:13.417Z,2.93
2019-03-17T21:57:42.846Z,1.90
2019-03-17T22:00:14.249Z,2.63
2019-03-17T22:02:43.877Z,2.27
2019-03-17T22:05:13.376Z,2.30
2019-03-17T22:07:49.608Z,2.43
2019-03-17T22:10:14.037Z,2.80
2019-03-17T22:12:43.951Z,2.63
2019-03-17T22:15:13.387Z,2.93
2019-03-17T22:17:42.684Z,3.43
2019-03-17T22:20:12.022Z,4.27
2019-03-17T22:22:41.388Z,6.27
2019-03-17T22:25:10.859Z,8.50
2019-03-17T22:27:40.579Z,7.87
2019-03-17T22:30:11.569Z,6.90
2019-03-17T22:32:40.874Z,3.30
2019-03-17T22:35:10.274Z,8.53
2019-03-17T22:37:39.553Z,5.80
2019-03-17T22:40:10.585Z,4.30
2019-03-17T22:42:39.931Z,5.60
2019-03-17T22:45:10.171Z,5.33
2019-03-17T22:47:39.566Z,3.30
2019-03-17T22:50:09.132Z,3.97
2019-03-17T22:52:38.479Z,4.43
2019-03-17T22:55:07.982Z,4.47
2019-03-17T22:57:37.289Z,3.77
2019-03-17T23:00:09.565Z,5.50
2019-03-17T23:02:38.864Z,4.67
2019-03-17T23:05:08.434Z,3.30
2019-03-17T23:07:38.300Z,3.60
2019-03-17T23:10:08.632Z,4.70
2019-03-17T23:12:38.043Z,5.00
2019-03-17T23:15:07.397Z,9.20
2019-03-17T23:17:36.767Z,4.60
2019-03-17T23:20:07.100Z,4.30
2019-03-17T23:22:36.922Z,4.50
2019-03-17T23:25:06.796Z,3.73
2019-03-17T23:27:36.135Z,3.60
2019-03-17T23:30:06.366Z,4.53
2019-03-17T23:32:35.862Z,4.10
2019-03-17T23:35:06.476Z,5.13
2019-03-17T23:37:35.793Z,4.30
2019-03-17T23:40:09.547Z,4.50
2019-03-17T23:42:38.647Z,5.90
2019-03-17T23:45:08.700Z,5.20
2019-03-17T23:47:38.012Z,5.17
2019-03-17T23:50:07.651Z,6.13
2019-03-17T23:52:37.039Z,4.30
2019-03-17T23:55:06.619Z,3.80
2019-03-17T23:57:36.276Z,3.90
